Time;durP1;ratioP1;P1;durP2;ratioP2;P2;SDS_P1;SDS_P2;PMS_P1;PMS_P2;Temp;Humidity;BMP_temperature;BMP_pressure;BME280_temperature;BME280_humidity;BME280_pressure;Samples;Min_cycle;Max_cycle;Signal;HPM_P1;HPM_P2
2023/05/07 00:00:59;;;;;;;1.92;1.00;;;;;;;;;;5046898;28;20196;-63
2023/05/07 00:03:27;;;;;;;1.25;1.02;;;;;;;;;;5049574;28;20204;-63
2023/05/07 00:05:54;;;;;;;1.63;1.10;;;;;;;;;;5052812;28;20229;-62
2023/05/07 00:08:21;;;;;;;1.33;1.20;;;;;;;;;;5050190;28;20207;-62
2023/05/07 00:10:48;;;;;;;1.15;1.00;;;;;;;;;;5049030;28;20259;-62
2023/05/07 00:13:16;;;;;;;1.33;1.20;;;;;;;;;;5049936;28;20211;-62
2023/05/07 00:15:43;;;;;;;1.02;1.00;;;;;;;;;;5051428;28;20199;-62
2023/05/07 00:18:12;;;;;;;1.23;1.00;;;;;;;;;;5052274;28;20214;-62
2023/05/07 00:20:39;;;;;;;1.58;1.30;;;;;;;;;;5048361;28;20196;-62
2023/05/07 00:23:06;;;;;;;1.13;1.10;;;;;;;;;;5045982;28;20203;-62
2023/05/07 00:25:33;;;;;;;1.30;1.20;;;;;;;;;;5049747;28;20204;-62
2023/05/07 00:28:03;;;;;;;1.45;1.20;;;;;;;;;;5048038;28;20230;-62
2023/05/07 00:30:30;;;;;;;1.10;1.10;;;;;;;;;;5051312;28;20255;-62
2023/05/07 00:32:57;;;;;;;1.75;1.30;;;;;;;;;;5051535;28;20200;-62
2023/05/07 00:35:26;;;;;;;1.10;1.00;;;;;;;;;;5050289;28;20286;-63
2023/05/07 00:37:53;;;;;;;1.30;1.20;;;;;;;;;;5049031;28;20199;-62
2023/05/07 00:40:20;;;;;;;0.90;0.90;;;;;;;;;;5050902;28;20207;-62
2023/05/07 00:42:48;;;;;;;3.90;1.10;;;;;;;;;;5048214;28;20209;-62
2023/05/07 00:45:16;;;;;;;1.25;1.00;;;;;;;;;;5050169;28;20219;-62
2023/05/07 00:47:43;;;;;;;1.40;1.30;;;;;;;;;;5048168;28;20196;-63
2023/05/07 00:50:12;;;;;;;1.20;1.10;;;;;;;;;;5048395;28;20223;-62
2023/05/07 00:52:41;;;;;;;1.30;1.20;;;;;;;;;;5046925;28;20207;-62
2023/05/07 00:55:09;;;;;;;1.30;1.15;;;;;;;;;;5050356;28;20210;-62
2023/05/07 00:57:37;;;;;;;3.67;1.25;;;;;;;;;;5048144;28;20218;-62
2023/05/07 01:00:05;;;;;;;1.23;1.08;;;;;;;;;;5044043;28;20199;-62
2023/05/07 01:02:32;;;;;;;1.40;1.30;;;;;;;;;;5048026;28;20204;-62
2023/05/07 01:05:00;;;;;;;3.17;1.40;;;;;;;;;;5048560;28;20203;-62
2023/05/07 01:07:27;;;;;;;1.30;1.20;;;;;;;;;;5045072;28;20200;-62
2023/05/07 01:09:55;;;;;;;1.10;1.10;;;;;;;;;;5049088;28;20223;-63
2023/05/07 01:12:23;;;;;;;2.22;1.20;;;;;;;;;;5044948;28;20219;-62
2023/05/07 01:14:50;;;;;;;2.03;1.23;;;;;;;;;;5048482;28;20204;-62
2023/05/07 01:17:17;;;;;;;1.58;1.23;;;;;;;;;;5046050;28;20211;-63
2023/05/07 01:19:44;;;;;;;2.00;1.35;;;;;;;;;;5049369;28;20222;-62
2023/05/07 01:22:12;;;;;;;1.77;1.40;;;;;;;;;;5048218;28;20241;-62
2023/05/07 01:24:41;;;;;;;1.20;1.20;;;;;;;;;;5048702;28;20231;-63
2023/05/07 01:27:08;;;;;;;1.55;1.40;;;;;;;;;;5045312;28;20210;-62
2023/05/07 01:29:35;;;;;;;2.03;1.30;;;;;;;;;;5047250;28;20195;-62
2023/05/07 01:32:02;;;;;;;1.30;1.20;;;;;;;;;;5047581;28;20203;-62
2023/05/07 01:34:31;;;;;;;1.08;1.08;;;;;;;;;;5046115;28;20218;-72
2023/05/07 01:37:00;;;;;;;2.05;1.17;;;;;;;;;;5044598;28;20204;-72
2023/05/07 01:39:27;;;;;;;1.15;1.15;;;;;;;;;;5047459;28;20215;-72
2023/05/07 01:41:57;;;;;;;2.10;1.20;;;;;;;;;;5046475;28;20203;-72
2023/05/07 01:44:24;;;;;;;1.25;1.10;;;;;;;;;;5046751;28;20213;-72
2023/05/07 01:46:51;;;;;;;1.00;1.00;;;;;;;;;;5047982;28;20203;-72
2023/05/07 01:49:18;;;;;;;1.42;1.33;;;;;;;;;;5048296;28;20202;-72
2023/05/07 01:51:45;;;;;;;1.00;1.00;;;;;;;;;;5047464;28;20222;-71
2023/05/07 01:54:13;;;;;;;1.17;1.02;;;;;;;;;;5046629;28;20341;-71
2023/05/07 01:56:40;;;;;;;1.15;1.05;;;;;;;;;;5047271;28;20266;-72
2023/05/07 01:59:08;;;;;;;1.60;1.10;;;;;;;;;;5049737;28;20206;-72
2023/05/07 02:01:36;;;;;;;2.28;1.38;;;;;;;;;;5045093;28;20223;-72
2023/05/07 02:04:03;;;;;;;1.10;1.00;;;;;;;;;;5046689;28;20297;-72
2023/05/07 02:06:30;;;;;;;1.13;1.00;;;;;;;;;;5048042;28;20203;-72
2023/05/07 02:08:58;;;;;;;1.25;1.00;;;;;;;;;;5046329;28;20250;-72
2023/05/07 02:11:25;;;;;;;1.35;1.02;;;;;;;;;;5045891;28;20243;-72
2023/05/07 02:13:52;;;;;;;1.77;1.15;;;;;;;;;;5047123;28;20200;-72
2023/05/07 02:16:22;;;;;;;1.75;1.20;;;;;;;;;;5045363;28;20234;-72
2023/05/07 02:18:49;;;;;;;2.38;1.17;;;;;;;;;;5048402;28;20214;-72
2023/05/07 02:21:16;;;;;;;1.00;0.90;;;;;;;;;;5048874;28;20211;-72
2023/05/07 02:23:43;;;;;;;1.20;1.10;;;;;;;;;;5048042;28;20199;-72
2023/05/07 02:26:10;;;;;;;1.85;1.27;;;;;;;;;;5048938;28;20208;-72
2023/05/07 02:28:37;;;;;;;1.70;0.90;;;;;;;;;;5046397;28;20234;-71
2023/05/07 02:31:05;;;;;;;1.10;1.00;;;;;;;;;;5045410;28;20220;-72
2023/05/07 02:33:34;;;;;;;1.08;1.08;;;;;;;;;;5047313;28;20211;-71
2023/05/07 02:36:07;;;;;;;1.20;1.10;;;;;;;;;;5048207;28;20213;-72
2023/05/07 02:38:34;;;;;;;1.42;1.00;;;;;;;;;;5045172;28;20250;-71
2023/05/07 02:41:01;;;;;;;1.10;1.00;;;;;;;;;;5045626;28;20195;-71
2023/05/07 02:43:28;;;;;;;1.42;1.10;;;;;;;;;;5048470;28;20227;-72
2023/05/07 02:46:02;;;;;;;1.58;1.00;;;;;;;;;;5048180;28;20210;-71
2023/05/07 02:48:29;;;;;;;1.23;1.10;;;;;;;;;;5045841;28;20253;-72
2023/05/07 02:50:58;;;;;;;1.15;1.08;;;;;;;;;;5045880;28;20231;-71
2023/05/07 02:53:26;;;;;;;1.35;1.25;;;;;;;;;;5044873;28;20219;-71
2023/05/07 02:55:53;;;;;;;1.45;1.10;;;;;;;;;;5047324;28;20203;-72
2023/05/07 02:58:20;;;;;;;1.30;1.20;;;;;;;;;;5045489;28;20305;-71
2023/05/07 03:00:47;;;;;;;1.30;1.20;;;;;;;;;;5045688;28;20203;-71
2023/05/07 03:03:15;;;;;;;1.58;1.20;;;;;;;;;;5045027;28;20218;-71
2023/05/07 03:05:42;;;;;;;1.08;1.08;;;;;;;;;;5043955;28;20235;-71
2023/05/07 03:08:11;;;;;;;1.42;1.33;;;;;;;;;;5046510;28;20203;-71
2023/05/07 03:10:38;;;;;;;1.45;1.10;;;;;;;;;;5047454;28;20239;-72
2023/05/07 03:13:05;;;;;;;1.10;1.10;;;;;;;;;;5045796;28;20207;-71
2023/05/07 03:15:33;;;;;;;1.15;1.10;;;;;;;;;;5045594;28;20208;-72
2023/05/07 03:18:00;;;;;;;0.98;0.90;;;;;;;;;;5048619;28;20210;-71
2023/05/07 03:20:27;;;;;;;1.23;1.20;;;;;;;;;;5042698;28;20195;-71
2023/05/07 03:22:54;;;;;;;1.20;1.10;;;;;;;;;;5046032;28;20203;-71
2023/05/07 03:25:22;;;;;;;1.20;1.10;;;;;;;;;;5051755;28;20255;-72
2023/05/07 03:27:50;;;;;;;1.33;1.00;;;;;;;;;;5048215;28;20208;-72
2023/05/07 03:30:17;;;;;;;1.30;1.20;;;;;;;;;;5050447;28;20200;-72
2023/05/07 03:32:44;;;;;;;1.42;1.08;;;;;;;;;;5050733;28;20211;-71
2023/05/07 03:35:11;;;;;;;3.00;1.30;;;;;;;;;;5050029;28;20206;-71
2023/05/07 03:37:39;;;;;;;1.10;1.00;;;;;;;;;;5047702;28;20206;-71
2023/05/07 03:40:07;;;;;;;3.40;1.25;;;;;;;;;;5049094;28;20204;-72
2023/05/07 03:42:36;;;;;;;1.48;1.20;;;;;;;;;;5048627;28;20227;-71
2023/05/07 03:45:03;;;;;;;1.65;1.20;;;;;;;;;;5049771;28;20195;-71
2023/05/07 03:47:30;;;;;;;1.20;1.10;;;;;;;;;;5049454;28;20207;-71
2023/05/07 03:49:57;;;;;;;4.40;1.70;;;;;;;;;;5052592;28;20200;-71
2023/05/07 03:52:25;;;;;;;1.20;1.10;;;;;;;;;;5050849;28;20302;-71
2023/05/07 03:54:53;;;;;;;1.20;1.15;;;;;;;;;;5047268;28;20207;-71
2023/05/07 03:57:20;;;;;;;1.15;1.10;;;;;;;;;;5047867;28;20203;-71
2023/05/07 03:59:48;;;;;;;1.05;1.05;;;;;;;;;;5043620;28;20200;-71
2023/05/07 04:02:15;;;;;;;1.33;1.23;;;;;;;;;;5047602;28;20203;-71
2023/05/07 04:04:42;;;;;;;1.08;1.08;;;;;;;;;;5047788;28;20216;-71
2023/05/07 04:07:10;;;;;;;1.55;1.33;;;;;;;;;;5048107;28;20233;-71
2023/05/07 04:09:37;;;;;;;1.30;1.20;;;;;;;;;;5048749;28;20261;-72
2023/05/07 04:12:04;;;;;;;1.48;1.35;;;;;;;;;;5050944;28;20243;-71
2023/05/07 04:14:32;;;;;;;1.65;1.15;;;;;;;;;;5047918;28;20227;-72
2023/05/07 04:17:00;;;;;;;1.58;1.48;;;;;;;;;;5047018;28;20207;-71
2023/05/07 04:19:27;;;;;;;3.00;1.30;;;;;;;;;;5048389;28;20207;-71
2023/05/07 04:21:54;;;;;;;2.35;1.30;;;;;;;;;;5050520;28;20210;-71
2023/05/07 04:24:21;;;;;;;1.23;1.20;;;;;;;;;;5051208;28;20199;-71
2023/05/07 04:26:48;;;;;;;2.10;1.50;;;;;;;;;;5047599;28;20194;-72
2023/05/07 04:29:16;;;;;;;2.85;1.40;;;;;;;;;;5049253;28;20214;-72
2023/05/07 04:31:44;;;;;;;1.83;1.30;;;;;;;;;;5045848;28;20216;-72
2023/05/07 04:34:12;;;;;;;3.10;1.30;;;;;;;;;;5050895;28;20203;-72
2023/05/07 04:36:40;;;;;;;1.20;1.10;;;;;;;;;;5048368;28;20227;-71
2023/05/07 04:39:07;;;;;;;1.90;1.70;;;;;;;;;;5047379;28;20204;-72
2023/05/07 04:41:35;;;;;;;1.30;1.20;;;;;;;;;;5049547;28;20286;-72
2023/05/07 04:44:04;;;;;;;1.33;1.20;;;;;;;;;;5047531;28;20208;-71
2023/05/07 04:46:31;;;;;;;2.35;1.25;;;;;;;;;;5048919;28;20207;-71
2023/05/07 04:48:58;;;;;;;1.35;1.20;;;;;;;;;;5046939;28;20196;-71
2023/05/07 04:51:27;;;;;;;1.40;1.30;;;;;;;;;;5050407;28;20216;-72
2023/05/07 04:53:54;;;;;;;1.45;1.20;;;;;;;;;;5047290;28;20199;-71
2023/05/07 04:56:22;;;;;;;1.40;1.30;;;;;;;;;;5043728;28;20215;-71
2023/05/07 04:58:49;;;;;;;2.13;1.77;;;;;;;;;;5046778;28;20211;-71
2023/05/07 05:01:16;;;;;;;1.52;1.40;;;;;;;;;;5048465;28;20207;-72
2023/05/07 05:03:43;;;;;;;1.50;1.40;;;;;;;;;;5047948;28;20204;-72
2023/05/07 05:06:10;;;;;;;1.30;1.20;;;;;;;;;;5050288;28;20200;-71
2023/05/07 05:08:38;;;;;;;3.10;1.60;;;;;;;;;;5048704;28;20192;-72
2023/05/07 05:11:06;;;;;;;2.13;1.35;;;;;;;;;;5044156;28;20243;-72
2023/05/07 05:13:33;;;;;;;1.50;1.40;;;;;;;;;;5042812;28;20203;-72
2023/05/07 05:16:00;;;;;;;1.83;1.40;;;;;;;;;;5045929;28;20206;-72
2023/05/07 05:18:27;;;;;;;1.83;1.65;;;;;;;;;;5047382;28;20212;-72
2023/05/07 05:20:54;;;;;;;1.95;1.30;;;;;;;;;;5048581;28;20199;-71
2023/05/07 05:23:21;;;;;;;1.40;1.30;;;;;;;;;;5043714;28;20199;-72
2023/05/07 05:25:50;;;;;;;1.60;1.50;;;;;;;;;;5050390;28;20192;-71
2023/05/07 05:28:17;;;;;;;1.88;1.23;;;;;;;;;;5048839;28;20204;-71
2023/05/07 05:30:44;;;;;;;1.50;1.40;;;;;;;;;;5050654;28;20212;-71
2023/05/07 05:33:11;;;;;;;1.40;1.30;;;;;;;;;;5048150;28;20204;-71
2023/05/07 05:35:38;;;;;;;1.58;1.48;;;;;;;;;;5047620;28;20204;-71
2023/05/07 05:38:05;;;;;;;1.42;1.33;;;;;;;;;;5041528;28;20199;-71
2023/05/07 05:40:33;;;;;;;1.58;1.30;;;;;;;;;;5039170;28;20204;-71
2023/05/07 05:43:01;;;;;;;1.60;1.50;;;;;;;;;;5046312;28;20204;-71
2023/05/07 05:45:28;;;;;;;2.05;1.45;;;;;;;;;;5040342;28;20291;-71
2023/05/07 05:47:57;;;;;;;1.30;1.20;;;;;;;;;;5041936;28;20214;-71
2023/05/07 05:50:24;;;;;;;1.30;1.20;;;;;;;;;;5045397;28;20204;-71
2023/05/07 05:52:51;;;;;;;1.67;1.40;;;;;;;;;;5041787;28;20251;-71
2023/05/07 05:55:18;;;;;;;1.80;1.70;;;;;;;;;;5038159;28;20214;-71
2023/05/07 05:57:46;;;;;;;1.70;1.60;;;;;;;;;;5036293;28;20219;-71
2023/05/07 06:00:15;;;;;;;1.73;1.63;;;;;;;;;;5043127;28;20203;-70
2023/05/07 06:02:43;;;;;;;2.28;1.60;;;;;;;;;;5035825;28;20204;-71
2023/05/07 06:05:10;;;;;;;2.70;1.80;;;;;;;;;;5041278;28;20199;-70
2023/05/07 06:07:37;;;;;;;2.15;1.88;;;;;;;;;;5043109;28;20207;-70
2023/05/07 06:10:05;;;;;;;1.95;1.60;;;;;;;;;;5040673;28;20219;-70
2023/05/07 06:12:33;;;;;;;1.80;1.70;;;;;;;;;;5042105;28;20354;-70
2023/05/07 06:15:00;;;;;;;2.03;1.70;;;;;;;;;;5045074;28;20206;-70
2023/05/07 06:17:28;;;;;;;1.63;1.48;;;;;;;;;;5041714;28;20207;-70
2023/05/07 06:19:55;;;;;;;1.38;1.35;;;;;;;;;;5044175;28;20204;-70
2023/05/07 06:22:22;;;;;;;1.75;1.60;;;;;;;;;;5044979;28;20200;-70
2023/05/07 06:24:50;;;;;;;1.10;1.08;;;;;;;;;;5043556;28;20214;-70
2023/05/07 06:27:17;;;;;;;3.00;1.65;;;;;;;;;;5044437;28;20234;-70
2023/05/07 06:29:44;;;;;;;2.55;1.50;;;;;;;;;;5042011;28;20203;-70
2023/05/07 06:32:11;;;;;;;3.30;1.65;;;;;;;;;;5048165;28;20229;-70
2023/05/07 06:34:40;;;;;;;2.30;1.65;;;;;;;;;;5046276;28;20193;-70
2023/05/07 06:37:08;;;;;;;1.95;1.80;;;;;;;;;;5039749;28;20204;-70
2023/05/07 06:39:35;;;;;;;1.65;1.55;;;;;;;;;;5044788;28;20199;-70
2023/05/07 06:42:04;;;;;;;2.97;1.50;;;;;;;;;;5048557;28;20211;-70
2023/05/07 06:44:31;;;;;;;1.60;1.50;;;;;;;;;;5048940;28;20203;-71
2023/05/07 06:46:58;;;;;;;3.22;1.60;;;;;;;;;;5049794;28;20200;-71
2023/05/07 06:49:25;;;;;;;2.47;1.60;;;;;;;;;;5046394;28;20287;-70
2023/05/07 06:51:54;;;;;;;1.80;1.50;;;;;;;;;;5046579;28;20243;-70
2023/05/07 06:54:21;;;;;;;1.73;1.60;;;;;;;;;;5045386;28;20211;-70
2023/05/07 06:56:48;;;;;;;1.77;1.50;;;;;;;;;;5048782;28;20211;-70
2023/05/07 06:59:15;;;;;;;2.05;1.50;;;;;;;;;;5048177;28;20208;-70
2023/05/07 07:01:42;;;;;;;3.10;1.60;;;;;;;;;;5050824;28;20208;-70
2023/05/07 07:04:09;;;;;;;1.55;1.42;;;;;;;;;;5049920;28;20237;-70
2023/05/07 07:06:36;;;;;;;1.90;1.70;;;;;;;;;;5051481;28;20199;-71
2023/05/07 07:09:05;;;;;;;1.60;1.50;;;;;;;;;;5046665;28;20196;-70
2023/05/07 07:11:32;;;;;;;1.48;1.38;;;;;;;;;;5050426;28;20231;-71
2023/05/07 07:13:59;;;;;;;1.50;1.40;;;;;;;;;;5049216;28;20199;-71
2023/05/07 07:16:26;;;;;;;1.60;1.50;;;;;;;;;;5050666;28;20265;-70
2023/05/07 07:18:53;;;;;;;2.92;1.50;;;;;;;;;;5051624;28;20203;-70
2023/05/07 07:21:21;;;;;;;1.60;1.42;;;;;;;;;;5053772;28;20200;-70
2023/05/07 07:23:48;;;;;;;1.65;1.40;;;;;;;;;;5050955;28;20199;-70
2023/05/07 07:26:16;;;;;;;2.30;1.50;;;;;;;;;;5052419;28;20214;-70
2023/05/07 07:28:44;;;;;;;1.52;1.42;;;;;;;;;;5046465;28;20203;-70
2023/05/07 07:31:11;;;;;;;1.75;1.52;;;;;;;;;;5048072;28;20204;-70
2023/05/07 07:33:38;;;;;;;1.88;1.75;;;;;;;;;;5037891;28;20231;-70
2023/05/07 07:36:06;;;;;;;2.17;1.75;;;;;;;;;;5050680;28;20298;-70
2023/05/07 07:38:34;;;;;;;1.80;1.48;;;;;;;;;;5048728;28;20202;-69
2023/05/07 07:41:01;;;;;;;1.75;1.48;;;;;;;;;;5046281;28;20207;-69
2023/05/07 07:43:30;;;;;;;2.38;1.50;;;;;;;;;;5045396;28;20204;-69
2023/05/07 07:45:57;;;;;;;1.50;1.33;;;;;;;;;;5050346;28;20218;-69
2023/05/07 07:48:24;;;;;;;3.15;1.50;;;;;;;;;;5044745;28;20208;-69
2023/05/07 07:50:51;;;;;;;2.22;1.90;;;;;;;;;;5050589;28;20204;-69
2023/05/07 07:53:18;;;;;;;1.40;1.30;;;;;;;;;;5048362;28;20230;-69
2023/05/07 07:55:46;;;;;;;1.38;1.27;;;;;;;;;;5050405;28;20200;-69
2023/05/07 07:58:13;;;;;;;1.50;1.40;;;;;;;;;;5046731;28;20204;-69
2023/05/07 08:00:41;;;;;;;2.35;1.40;;;;;;;;;;5049672;28;20262;-69
2023/05/07 08:03:10;;;;;;;2.40;1.65;;;;;;;;;;5051116;28;20207;-69
2023/05/07 08:05:38;;;;;;;2.25;1.48;;;;;;;;;;5049458;28;20207;-69
2023/05/07 08:08:05;;;;;;;2.15;1.60;;;;;;;;;;5050018;28;20231;-69
2023/05/07 08:10:34;;;;;;;2.13;1.30;;;;;;;;;;5052101;28;20231;-69
2023/05/07 08:13:01;;;;;;;2.08;1.40;;;;;;;;;;5045389;28;20263;-69
2023/05/07 08:15:28;;;;;;;1.50;1.27;;;;;;;;;;5046088;28;20203;-69
2023/05/07 08:17:58;;;;;;;2.47;1.50;;;;;;;;;;5049728;28;20199;-69
2023/05/07 08:20:25;;;;;;;2.80;1.30;;;;;;;;;;5049614;28;20307;-69
2023/05/07 08:22:52;;;;;;;1.40;1.30;;;;;;;;;;5048838;28;20218;-69
2023/05/07 08:25:20;;;;;;;1.88;1.30;;;;;;;;;;5047706;28;20199;-69
2023/05/07 08:27:47;;;;;;;1.63;1.40;;;;;;;;;;5047072;28;20203;-69
2023/05/07 08:30:14;;;;;;;2.45;1.50;;;;;;;;;;5049261;28;20207;-69
2023/05/07 08:32:42;;;;;;;1.27;1.20;;;;;;;;;;5048281;28;20223;-69
2023/05/07 08:35:10;;;;;;;1.85;1.40;;;;;;;;;;5050604;28;20212;-69
2023/05/07 08:37:37;;;;;;;1.50;1.40;;;;;;;;;;5045168;28;20199;-69
2023/05/07 08:40:06;;;;;;;1.40;1.30;;;;;;;;;;5047077;28;20211;-69
2023/05/07 08:42:33;;;;;;;1.75;1.60;;;;;;;;;;5046921;28;20257;-69
2023/05/07 08:45:02;;;;;;;1.58;1.48;;;;;;;;;;5050852;28;20207;-69
2023/05/07 08:47:31;;;;;;;1.48;1.38;;;;;;;;;;5049522;28;20245;-68
2023/05/07 08:49:58;;;;;;;2.50;1.25;;;;;;;;;;5045137;28;20269;-68
2023/05/07 08:52:27;;;;;;;3.00;1.58;;;;;;;;;;5046373;28;20225;-69
2023/05/07 08:54:54;;;;;;;1.00;1.00;;;;;;;;;;5050983;28;20207;-69
2023/05/07 08:57:24;;;;;;;1.88;1.27;;;;;;;;;;5050214;28;20219;-69
2023/05/07 08:59:51;;;;;;;1.40;1.30;;;;;;;;;;5047037;28;20233;-69
2023/05/07 09:02:18;;;;;;;1.67;1.40;;;;;;;;;;5046947;28;20207;-69
2023/05/07 09:04:45;;;;;;;2.97;1.50;;;;;;;;;;5050330;28;20199;-69
2023/05/07 09:07:12;;;;;;;2.00;1.40;;;;;;;;;;5051446;28;20214;-69
2023/05/07 09:09:40;;;;;;;1.40;1.30;;;;;;;;;;5044894;28;20215;-69
2023/05/07 09:12:08;;;;;;;1.50;1.40;;;;;;;;;;5042568;28;20293;-69
2023/05/07 09:14:35;;;;;;;2.60;1.50;;;;;;;;;;5045396;28;20212;-68
2023/05/07 09:17:02;;;;;;;1.40;1.30;;;;;;;;;;5045635;28;20227;-69
2023/05/07 09:19:29;;;;;;;2.38;1.15;;;;;;;;;;5045191;28;20226;-68
2023/05/07 09:22:00;;;;;;;3.58;1.40;;;;;;;;;;5044380;28;20203;-68
2023/05/07 09:24:30;;;;;;;1.40;1.30;;;;;;;;;;5047244;28;20215;-68
2023/05/07 09:27:01;;;;;;;1.33;1.23;;;;;;;;;;5042587;28;20203;-68
2023/05/07 09:29:29;;;;;;;1.63;1.30;;;;;;;;;;5045473;28;20207;-69
2023/05/07 09:31:57;;;;;;;1.13;1.13;;;;;;;;;;5045157;28;20288;-68
2023/05/07 09:34:24;;;;;;;1.67;1.25;;;;;;;;;;5042786;28;20212;-68
2023/05/07 09:36:51;;;;;;;1.40;1.30;;;;;;;;;;5048729;28;20210;-68
2023/05/07 09:39:18;;;;;;;1.60;1.08;;;;;;;;;;5047729;28;20211;-68
2023/05/07 09:41:46;;;;;;;1.40;1.30;;;;;;;;;;5047326;28;20215;-69
2023/05/07 09:44:15;;;;;;;1.80;1.40;;;;;;;;;;5050751;28;20203;-68
2023/05/07 09:46:44;;;;;;;1.50;1.40;;;;;;;;;;5051175;28;20211;-67
2023/05/07 09:49:14;;;;;;;1.70;1.30;;;;;;;;;;5051552;28;20218;-68
2023/05/07 09:51:44;;;;;;;3.03;1.30;;;;;;;;;;5051612;28;20253;-69
2023/05/07 09:54:12;;;;;;;1.40;1.17;;;;;;;;;;5051887;28;20231;-69
2023/05/07 09:56:41;;;;;;;1.42;1.15;;;;;;;;;;5049062;28;20207;-69
2023/05/07 09:59:08;;;;;;;1.30;1.20;;;;;;;;;;5048051;28;20239;-69
2023/05/07 10:01:37;;;;;;;1.58;1.20;;;;;;;;;;5051509;28;20214;-69
2023/05/07 10:04:04;;;;;;;1.00;1.00;;;;;;;;;;5050020;28;20230;-68
2023/05/07 10:06:31;;;;;;;2.33;1.17;;;;;;;;;;5051663;28;20219;-68
2023/05/07 10:08:59;;;;;;;1.35;1.20;;;;;;;;;;5050664;28;20208;-68
2023/05/07 10:11:26;;;;;;;2.63;1.13;;;;;;;;;;5050881;28;20230;-68
2023/05/07 10:13:53;;;;;;;2.38;1.10;;;;;;;;;;5051451;28;20231;-68
2023/05/07 10:16:22;;;;;;;1.50;1.10;;;;;;;;;;5051259;28;20301;-68
2023/05/07 10:18:51;;;;;;;1.98;1.10;;;;;;;;;;5050633;28;20214;-67
2023/05/07 10:21:19;;;;;;;1.60;1.17;;;;;;;;;;5051011;28;20211;-67
2023/05/07 10:23:46;;;;;;;1.63;1.30;;;;;;;;;;5051879;28;20210;-67
2023/05/07 10:26:14;;;;;;;0.90;0.90;;;;;;;;;;5049477;28;20256;-67
2023/05/07 10:28:43;;;;;;;1.83;1.20;;;;;;;;;;5051408;28;20207;-67
2023/05/07 10:31:16;;;;;;;1.50;1.20;;;;;;;;;;5048664;28;20239;-67
2023/05/07 10:33:44;;;;;;;1.00;1.00;;;;;;;;;;5048046;28;20219;-67
2023/05/07 10:36:13;;;;;;;2.45;1.50;;;;;;;;;;5050651;28;20203;-67
2023/05/07 10:38:40;;;;;;;1.13;1.08;;;;;;;;;;5050768;28;20217;-67
2023/05/07 10:41:07;;;;;;;1.13;1.00;;;;;;;;;;5050507;28;20204;-67
2023/05/07 10:43:42;;;;;;;2.50;1.38;;;;;;;;;;5051188;28;20203;-67
2023/05/07 10:46:12;;;;;;;1.45;1.20;;;;;;;;;;5048918;28;20210;-67
2023/05/07 10:48:54;;;;;;;1.77;1.33;;;;;;;;;;5050438;28;20207;-67
2023/05/07 10:51:23;;;;;;;1.45;1.35;;;;;;;;;;5050681;28;20215;-67
2023/05/07 10:54:10;;;;;;;1.17;1.10;;;;;;;;;;5049838;28;20223;-68
2023/05/07 10:56:38;;;;;;;1.15;1.00;;;;;;;;;;5049556;28;20222;-69
2023/05/07 10:59:26;;;;;;;2.17;1.25;;;;;;;;;;5050856;28;20207;-68
2023/05/07 11:01:55;;;;;;;1.63;1.00;;;;;;;;;;5049927;28;20210;-69
2023/05/07 11:04:27;;;;;;;2.00;1.00;;;;;;;;;;5051140;28;20210;-67
2023/05/07 11:07:13;;;;;;;1.20;1.10;;;;;;;;;;5050399;28;20221;-68
2023/05/07 11:10:00;;;;;;;1.08;1.08;;;;;;;;;;5049618;28;20227;-68
2023/05/07 11:12:46;;;;;;;1.20;1.10;;;;;;;;;;5049205;28;20199;-67
2023/05/07 11:15:15;;;;;;;1.08;1.05;;;;;;;;;;5048841;28;20208;-67
2023/05/07 11:17:53;;;;;;;1.88;1.30;;;;;;;;;;5048713;28;20207;-67
2023/05/07 11:20:21;;;;;;;1.63;1.10;;;;;;;;;;5047972;28;20206;-67
2023/05/07 11:22:48;;;;;;;1.58;1.30;;;;;;;;;;5050620;28;20211;-67
2023/05/07 11:25:20;;;;;;;1.20;1.20;;;;;;;;;;5049458;28;20300;-67
2023/05/07 11:27:47;;;;;;;1.45;1.15;;;;;;;;;;5048572;28;20408;-68
2023/05/07 11:30:19;;;;;;;2.60;1.33;;;;;;;;;;5050043;28;20218;-67
2023/05/07 11:32:48;;;;;;;3.75;1.20;;;;;;;;;;5049380;28;20203;-68
2023/05/07 11:35:16;;;;;;;1.52;1.30;;;;;;;;;;5050318;28;20207;-68
2023/05/07 11:37:46;;;;;;;1.30;1.10;;;;;;;;;;5049821;28;20212;-69
2023/05/07 11:40:13;;;;;;;1.70;1.02;;;;;;;;;;5049259;28;20208;-68
2023/05/07 11:42:43;;;;;;;1.10;1.10;;;;;;;;;;5052431;28;20207;-67
2023/05/07 11:45:10;;;;;;;1.10;1.10;;;;;;;;;;5050694;28;20302;-67
2023/05/07 11:47:37;;;;;;;1.45;1.17;;;;;;;;;;5053591;28;20329;-68
2023/05/07 11:50:05;;;;;;;1.10;1.10;;;;;;;;;;5054297;28;20207;-67
2023/05/07 11:52:32;;;;;;;1.30;1.20;;;;;;;;;;5053674;28;20211;-67
2023/05/07 11:55:00;;;;;;;1.40;1.30;;;;;;;;;;5051832;28;20245;-67
2023/05/07 11:57:28;;;;;;;1.25;1.15;;;;;;;;;;5052757;28;20243;-67
2023/05/07 11:59:57;;;;;;;1.83;1.30;;;;;;;;;;5052856;28;20215;-67
2023/05/07 12:02:24;;;;;;;1.20;1.10;;;;;;;;;;5050243;28;20195;-67
2023/05/07 12:04:52;;;;;;;1.30;1.20;;;;;;;;;;5052723;28;20203;-67
2023/05/07 12:07:19;;;;;;;1.70;1.30;;;;;;;;;;5053775;28;20215;-67
2023/05/07 12:09:47;;;;;;;1.25;1.15;;;;;;;;;;5053681;28;20219;-67
2023/05/07 12:12:15;;;;;;;1.40;1.30;;;;;;;;;;5053103;28;20242;-67
2023/05/07 12:14:42;;;;;;;1.58;1.20;;;;;;;;;;5050243;28;20310;-67
2023/05/07 12:17:11;;;;;;;1.67;1.10;;;;;;;;;;5052330;28;20210;-67
2023/05/07 12:19:39;;;;;;;3.17;1.35;;;;;;;;;;5053255;28;20204;-67
2023/05/07 12:22:07;;;;;;;1.52;1.40;;;;;;;;;;5050514;28;20218;-68
2023/05/07 12:24:44;;;;;;;2.83;1.20;;;;;;;;;;5052010;28;20204;-67
2023/05/07 12:27:11;;;;;;;2.00;1.40;;;;;;;;;;5052659;28;20217;-67
2023/05/07 12:29:40;;;;;;;1.30;1.20;;;;;;;;;;5052716;28;20203;-67
2023/05/07 12:32:07;;;;;;;1.25;1.10;;;;;;;;;;5053413;28;20207;-67
2023/05/07 12:34:36;;;;;;;1.15;1.05;;;;;;;;;;5051350;28;20231;-68
2023/05/07 12:37:04;;;;;;;1.25;1.15;;;;;;;;;;5048858;28;20208;-67
2023/05/07 12:39:32;;;;;;;1.20;1.10;;;;;;;;;;5048720;28;20207;-67
2023/05/07 12:42:00;;;;;;;1.55;1.10;;;;;;;;;;5050901;28;20199;-68
2023/05/07 12:44:27;;;;;;;1.45;1.35;;;;;;;;;;5048274;28;20204;-68
2023/05/07 12:46:54;;;;;;;3.13;1.30;;;;;;;;;;5052478;28;20243;-67
2023/05/07 12:49:21;;;;;;;1.83;1.20;;;;;;;;;;5055687;28;20204;-67
2023/05/07 12:51:50;;;;;;;1.20;1.10;;;;;;;;;;5052220;28;20290;-67
2023/05/07 12:54:29;;;;;;;1.40;1.30;;;;;;;;;;5051959;28;20226;-67
2023/05/07 12:57:01;;;;;;;1.52;1.30;;;;;;;;;;5052700;28;20260;-67
2023/05/07 12:59:32;;;;;;;5.03;1.50;;;;;;;;;;5052336;28;20215;-67
2023/05/07 13:01:59;;;;;;;1.48;1.38;;;;;;;;;;5052355;28;20223;-67
2023/05/07 13:04:26;;;;;;;1.13;1.10;;;;;;;;;;5052855;28;20206;-67
2023/05/07 13:06:55;;;;;;;1.00;1.00;;;;;;;;;;5052885;28;20218;-67
2023/05/07 13:09:22;;;;;;;2.45;1.27;;;;;;;;;;5050211;28;20223;-67
2023/05/07 13:11:49;;;;;;;1.25;1.15;;;;;;;;;;5052463;28;20239;-67
2023/05/07 13:14:16;;;;;;;1.20;1.20;;;;;;;;;;5052457;28;20227;-68
2023/05/07 13:16:43;;;;;;;1.45;1.38;;;;;;;;;;5050701;28;20218;-67
2023/05/07 13:19:10;;;;;;;0.98;0.98;;;;;;;;;;5051549;28;20211;-68
2023/05/07 13:21:37;;;;;;;1.35;1.20;;;;;;;;;;5047600;28;20207;-67
2023/05/07 13:24:06;;;;;;;1.73;1.40;;;;;;;;;;5052567;28;20207;-67
2023/05/07 13:26:33;;;;;;;2.05;1.33;;;;;;;;;;5051576;28;20198;-67
2023/05/07 13:29:01;;;;;;;1.58;1.10;;;;;;;;;;5051198;28;20211;-67
2023/05/07 13:31:28;;;;;;;1.30;1.20;;;;;;;;;;5049886;28;20206;-67
2023/05/07 13:33:56;;;;;;;2.13;1.30;;;;;;;;;;5052112;28;20235;-67
2023/05/07 13:36:23;;;;;;;1.48;1.38;;;;;;;;;;5048722;28;20207;-67
2023/05/07 13:38:50;;;;;;;1.30;1.20;;;;;;;;;;5051640;28;20200;-67
2023/05/07 13:41:18;;;;;;;1.67;1.40;;;;;;;;;;5051199;28;20212;-67
2023/05/07 13:43:45;;;;;;;2.58;1.33;;;;;;;;;;5048448;28;20206;-67
2023/05/07 13:46:12;;;;;;;1.20;1.10;;;;;;;;;;5049998;28;20207;-67
2023/05/07 13:48:39;;;;;;;1.45;1.30;;;;;;;;;;5048879;28;20199;-67
2023/05/07 13:51:07;;;;;;;2.67;1.60;;;;;;;;;;5051644;28;20207;-67
2023/05/07 13:53:35;;;;;;;1.33;1.23;;;;;;;;;;5051657;28;20207;-68
2023/05/07 13:56:04;;;;;;;2.03;1.40;;;;;;;;;;5044490;28;20211;-67
2023/05/07 13:58:32;;;;;;;1.30;1.20;;;;;;;;;;5041183;28;20199;-67
2023/05/07 14:00:59;;;;;;;1.50;1.40;;;;;;;;;;5044373;28;20207;-68
2023/05/07 14:03:27;;;;;;;3.70;1.45;;;;;;;;;;5047289;28;20204;-67
2023/05/07 14:05:54;;;;;;;1.35;1.23;;;;;;;;;;5045748;28;20215;-67
2023/05/07 14:08:21;;;;;;;2.72;1.40;;;;;;;;;;5048664;28;20204;-67
2023/05/07 14:10:48;;;;;;;1.42;1.10;;;;;;;;;;5047161;28;20234;-67
2023/05/07 14:13:15;;;;;;;1.52;1.30;;;;;;;;;;5044318;28;20199;-68
2023/05/07 14:15:46;;;;;;;1.88;1.50;;;;;;;;;;5044389;28;20219;-67
2023/05/07 14:18:13;;;;;;;1.45;1.30;;;;;;;;;;5050184;28;20231;-68
2023/05/07 14:20:40;;;;;;;1.92;1.40;;;;;;;;;;5047580;28;20199;-67
2023/05/07 14:23:07;;;;;;;1.48;1.38;;;;;;;;;;5048913;28;20206;-68
2023/05/07 14:25:34;;;;;;;1.65;1.38;;;;;;;;;;5050640;28;20203;-67
2023/05/07 14:28:01;;;;;;;1.48;1.13;;;;;;;;;;5047974;28;20204;-68
2023/05/07 14:30:28;;;;;;;1.83;1.27;;;;;;;;;;5049117;28;20203;-68
2023/05/07 14:32:57;;;;;;;2.40;1.40;;;;;;;;;;5049589;28;20210;-68
2023/05/07 14:35:24;;;;;;;2.08;1.50;;;;;;;;;;5049370;28;20238;-68
2023/05/07 14:37:51;;;;;;;1.95;1.40;;;;;;;;;;5046056;28;20206;-68
2023/05/07 14:40:18;;;;;;;1.90;1.50;;;;;;;;;;5045871;28;20218;-68
2023/05/07 14:42:45;;;;;;;3.28;1.23;;;;;;;;;;5047987;28;20210;-68
2023/05/07 14:45:12;;;;;;;1.60;1.50;;;;;;;;;;5047918;28;20210;-68
2023/05/07 14:47:39;;;;;;;1.40;1.30;;;;;;;;;;5046196;28;20210;-68